Time;durP1;ratioP1;P1;durP2;ratioP2;P2;SDS_P1;SDS_P2;PMS_P1;PMS_P2;Temp;Humidity;BMP_temperature;BMP_pressure;BME280_temperature;BME280_humidity;BME280_pressure;Samples;Min_cycle;Max_cycle;Signal;HPM_P1;HPM_P2
2021/11/15 00:02:09;;;;;;;74.57;35.20;;;;;;;7.19;93.07;102934.28;10193002;28;20713;-69
2021/11/15 00:07:06;;;;;;;80.88;35.08;;;;;;;7.19;92.20;102934.28;10201384;28;20050;-69
2021/11/15 00:12:03;;;;;;;82.43;38.20;;;;;;;7.18;91.61;102920.94;10210281;28;20053;-70
2021/11/15 00:16:59;;;;;;;83.35;35.30;;;;;;;7.12;92.45;102922.72;10208931;28;20050;-70
2021/11/15 00:21:56;;;;;;;82.22;35.70;;;;;;;7.17;92.64;102920.09;10195809;28;20085;-69
2021/11/15 00:26:52;;;;;;;92.20;38.70;;;;;;;7.17;93.19;102914.66;10199081;28;20104;-70
2021/11/15 00:31:49;;;;;;;77.53;35.20;;;;;;;7.21;93.15;102915.81;10189960;28;20578;-69
2021/11/15 00:36:46;;;;;;;84.90;36.72;;;;;;;7.20;93.29;102907.94;10204235;28;20045;-70
2021/11/15 00:41:42;;;;;;;81.07;37.08;;;;;;;7.13;93.79;102908.88;10195443;28;20041;-69
2021/11/15 00:46:39;;;;;;;90.82;39.42;;;;;;;7.25;93.53;102911.56;10198111;28;20041;-69
2021/11/15 00:51:36;;;;;;;82.78;35.47;;;;;;;7.25;93.49;102906.13;10211483;28;20507;-69
2021/11/15 00:56:32;;;;;;;85.10;37.80;;;;;;;7.13;93.69;102903.44;10192997;28;20041;-70
2021/11/15 01:01:28;;;;;;;87.25;35.40;;;;;;;7.11;93.01;102912.91;10198998;28;20068;-69
2021/11/15 01:06:25;;;;;;;88.53;36.70;;;;;;;7.19;93.41;102911.69;10190464;28;20046;-69
2021/11/15 01:11:22;;;;;;;78.20;34.45;;;;;;;7.12;93.77;102901.75;10202225;28;20100;-69
2021/11/15 01:16:19;;;;;;;85.03;36.72;;;;;;;7.15;93.33;102900.50;10199560;28;20042;-70
2021/11/15 01:21:16;;;;;;;81.00;34.95;;;;;;;7.15;93.56;102900.50;10189535;28;20397;-70
2021/11/15 01:26:13;;;;;;;80.55;34.78;;;;;;;7.18;93.89;102900.00;10197964;28;20058;-70
2021/11/15 01:31:10;;;;;;;86.55;38.28;;;;;;;7.01;93.43;102899.09;10185866;28;20627;-69
2021/11/15 01:36:06;;;;;;;80.18;33.90;;;;;;;7.03;93.34;102896.94;10196510;28;20053;-69
2021/11/15 01:41:06;;;;;;;91.88;40.22;;;;;;;7.07;93.39;102898.13;10203955;28;20050;-69
2021/11/15 01:46:03;;;;;;;92.75;39.15;;;;;;;7.12;93.83;102906.38;10212693;28;20069;-70
2021/11/15 01:50:59;;;;;;;88.35;35.72;;;;;;;7.02;93.97;102903.47;10196111;28;20100;-69
2021/11/15 01:55:56;;;;;;;89.55;35.97;;;;;;;7.15;93.44;102914.09;10195257;28;20081;-69
2021/11/15 02:00:56;;;;;;;82.97;36.63;;;;;;;7.10;94.20;102919.41;10196268;28;20046;-70
2021/11/15 02:05:54;;;;;;;84.00;35.10;;;;;;;7.06;94.87;102910.09;11169409;23;20050;-67
2021/11/15 02:10:50;;;;;;;86.60;35.47;;;;;;;6.95;94.02;102914.47;10199015;28;20552;-67
2021/11/15 02:15:49;;;;;;;81.55;33.75;;;;;;;7.07;93.82;102914.44;10175659;28;20530;-67
2021/11/15 02:20:50;;;;;;;81.93;37.72;;;;;;;7.09;93.53;102928.66;10145392;28;20092;-68
2021/11/15 02:25:49;;;;;;;83.70;36.17;;;;;;;7.12;93.68;102917.28;10149560;28;20102;-67
2021/11/15 02:30:46;;;;;;;81.32;36.22;;;;;;;7.11;94.18;102910.19;10156472;28;20541;-67
2021/11/15 02:35:43;;;;;;;80.43;34.95;;;;;;;7.18;94.11;102908.16;10127235;28;20122;-68
2021/11/15 02:40:40;;;;;;;82.28;35.03;;;;;;;7.15;94.27;102914.09;10161548;28;20477;-67
2021/11/15 02:45:36;;;;;;;82.35;33.92;;;;;;;7.03;95.28;102913.28;10137787;28;20047;-68
2021/11/15 02:50:33;;;;;;;83.82;35.42;;;;;;;7.07;94.86;102903.56;10157921;28;20042;-67
2021/11/15 02:55:31;;;;;;;87.82;37.85;;;;;;;6.98;94.19;102903.09;10158068;28;20065;-67
2021/11/15 03:00:32;;;;;;;87.18;38.72;;;;;;;7.10;94.02;102905.78;10158970;28;20056;-67
2021/11/15 03:05:32;;;;;;;83.88;34.35;;;;;;;7.14;94.20;102905.06;10152592;28;20046;-67
2021/11/15 03:10:29;;;;;;;92.57;40.10;;;;;;;7.02;92.96;102901.56;10169314;28;20130;-67
2021/11/15 03:15:29;;;;;;;91.07;39.75;;;;;;;7.08;93.73;102902.53;10171335;28;20093;-67
2021/11/15 03:20:29;;;;;;;87.80;37.40;;;;;;;7.04;94.16;102904.06;10167720;28;20088;-67
2021/11/15 03:25:29;;;;;;;92.13;36.78;;;;;;;7.04;94.37;102893.19;10160955;28;20046;-67
2021/11/15 03:30:26;;;;;;;85.40;35.53;;;;;;;7.01;93.86;102899.09;10160139;28;20054;-67
2021/11/15 03:35:23;;;;;;;86.60;34.78;;;;;;;6.76;94.29;102900.22;10163644;28;20062;-67
2021/11/15 03:40:24;;;;;;;89.90;36.78;;;;;;;6.94;94.22;102900.06;10168647;28;20050;-67
2021/11/15 03:45:22;;;;;;;89.80;38.35;;;;;;;6.95;94.92;102885.38;10156795;28;20408;-69
2021/11/15 03:50:18;;;;;;;89.82;35.30;;;;;;;6.97;94.66;102889.78;10147742;28;20038;-69
2021/11/15 03:55:17;;;;;;;87.10;34.85;;;;;;;6.95;95.42;102882.66;10146779;28;20590;-69
2021/11/15 04:00:17;;;;;;;88.78;35.63;;;;;;;6.94;94.93;102886.47;10164628;28;20128;-69
2021/11/15 04:05:14;;;;;;;93.45;35.20;;;;;;;6.94;94.02;102881.03;10158761;28;20053;-69
2021/11/15 04:10:19;;;;;;;77.38;33.42;;;;;;;6.92;93.63;102896.75;10164857;28;21611;-68
2021/11/15 04:15:15;;;;;;;86.53;35.67;;;;;;;6.89;93.59;102885.50;10174074;28;20104;-69
2021/11/15 04:20:15;;;;;;;77.45;32.78;;;;;;;6.87;93.61;102893.94;10170089;28;20069;-69
2021/11/15 04:25:12;;;;;;;76.95;34.15;;;;;;;6.78;94.46;102895.38;10161507;28;20082;-69
2021/11/15 04:30:12;;;;;;;79.45;32.28;;;;;;;6.83;93.56;102897.38;10173752;28;20042;-69
2021/11/15 04:35:14;;;;;;;80.45;33.88;;;;;;;6.76;94.36;102881.19;10161064;28;20073;-69
2021/11/15 04:40:10;;;;;;;75.53;33.03;;;;;;;6.75;92.94;102890.38;10167538;28;20072;-68
2021/11/15 04:45:08;;;;;;;71.57;31.13;;;;;;;6.72;93.02;102891.69;10163971;28;20559;-69
2021/11/15 04:50:06;;;;;;;74.10;32.33;;;;;;;6.74;92.74;102883.31;10162533;28;20377;-69
2021/11/15 04:55:05;;;;;;;77.28;33.03;;;;;;;6.65;92.66;102885.56;10146800;28;20491;-69
2021/11/15 05:00:06;;;;;;;78.15;34.47;;;;;;;6.47;93.16;102886.50;10162607;28;20099;-69
2021/11/15 05:05:04;;;;;;;77.28;31.85;;;;;;;6.50;93.34;102887.94;10155107;28;20134;-68
2021/11/15 05:10:00;;;;;;;77.57;34.08;;;;;;;6.57;94.27;102882.38;10157548;28;20058;-68
2021/11/15 05:14:57;;;;;;;78.97;35.80;;;;;;;6.62;94.70;102886.03;10158361;28;20093;-69
2021/11/15 05:19:54;;;;;;;81.25;34.75;;;;;;;6.67;94.00;102879.88;10157090;28;20063;-69
2021/11/15 05:24:52;;;;;;;79.90;34.20;;;;;;;6.68;93.87;102885.09;10166760;28;20065;-68
2021/11/15 05:29:49;;;;;;;75.25;33.47;;;;;;;6.52;94.77;102886.66;10164323;28;20077;-68
2021/11/15 05:34:45;;;;;;;79.22;33.53;;;;;;;6.64;93.58;102900.22;10161025;28;20045;-68
2021/11/15 05:39:42;;;;;;;73.03;33.85;;;;;;;6.65;92.92;102901.03;10167086;28;20038;-69
2021/11/15 05:44:39;;;;;;;79.18;35.40;;;;;;;6.55;92.37;102895.38;10166066;28;20055;-69
2021/11/15 05:49:36;;;;;;;72.38;32.80;;;;;;;6.52;92.33;102889.38;10142219;28;20051;-69
2021/11/15 05:54:32;;;;;;;70.25;33.60;;;;;;;6.52;92.14;102892.09;10164090;28;20048;-69
2021/11/15 05:59:29;;;;;;;66.30;30.10;;;;;;;6.40;91.93;102893.94;10155048;28;20570;-69
2021/11/15 06:04:25;;;;;;;67.60;31.20;;;;;;;6.55;91.04;102895.38;10152808;28;20054;-69
2021/11/15 06:09:22;;;;;;;68.03;30.25;;;;;;;6.48;89.82;102896.34;10157918;28;20096;-69
2021/11/15 06:14:18;;;;;;;63.00;32.03;;;;;;;6.49;89.84;102897.97;10154211;28;20046;-69
2021/11/15 06:19:16;;;;;;;62.50;30.48;;;;;;;6.46;89.77;102903.88;10166094;28;20081;-69
2021/11/15 06:24:13;;;;;;;52.83;27.67;;;;;;;6.58;90.15;102900.34;10158797;28;20046;-69
2021/11/15 06:29:12;;;;;;;60.33;29.10;;;;;;;6.58;90.02;102900.34;10151573;28;20044;-69
2021/11/15 06:34:08;;;;;;;63.38;32.08;;;;;;;6.62;90.46;102901.53;10153352;28;20438;-68
2021/11/15 06:39:05;;;;;;;61.72;31.27;;;;;;;6.60;90.77;102903.66;10163277;28;20462;-69
2021/11/15 06:44:03;;;;;;;61.78;30.55;;;;;;;6.67;90.77;102904.34;10155559;28;20041;-68
2021/11/15 06:48:59;;;;;;;64.30;31.58;;;;;;;6.60;89.90;102903.66;10153289;28;20047;-70
2021/11/15 06:54:06;;;;;;;61.92;28.65;;;;;;;6.61;89.68;102910.72;10151336;28;20045;-68
2021/11/15 06:59:03;;;;;;;64.43;28.50;;;;;;;6.48;89.67;102909.91;10152298;28;20400;-69
2021/11/15 07:03:59;;;;;;;60.35;28.83;;;;;;;6.60;89.80;102909.09;10147856;28;20089;-68
2021/11/15 07:08:55;;;;;;;67.97;32.35;;;;;;;6.64;90.09;102908.38;10166261;28;20050;-69
2021/11/15 07:13:52;;;;;;;62.70;29.45;;;;;;;6.67;90.01;102905.19;10164363;28;20109;-67
2021/11/15 07:18:52;;;;;;;65.20;31.95;;;;;;;6.65;89.29;102915.47;10160758;28;20042;-67
2021/11/15 07:23:49;;;;;;;65.18;30.58;;;;;;;6.69;89.33;102907.66;10166507;28;20101;-67
2021/11/15 07:28:45;;;;;;;58.97;31.05;;;;;;;6.74;89.55;102907.78;10170156;28;20046;-68
2021/11/15 07:33:42;;;;;;;55.50;29.30;;;;;;;6.73;89.84;102908.84;10165761;28;20046;-68
2021/11/15 07:38:39;;;;;;;62.92;29.88;;;;;;;6.81;89.50;102905.75;10160045;28;20150;-68
2021/11/15 07:43:35;;;;;;;55.85;28.00;;;;;;;6.75;88.80;102898.53;10155099;28;20508;-67
2021/11/15 07:48:32;;;;;;;60.92;30.38;;;;;;;6.73;87.97;102903.41;10153832;28;20443;-67
2021/11/15 07:53:36;;;;;;;59.50;29.77;;;;;;;6.80;87.77;102893.22;10139544;28;20081;-68
2021/11/15 07:58:33;;;;;;;55.60;28.90;;;;;;;6.81;88.22;102894.88;10166979;28;20073;-68
2021/11/15 08:03:30;;;;;;;52.15;26.85;;;;;;;6.80;87.72;102892.38;10164273;28;20480;-68
2021/11/15 08:08:26;;;;;;;56.25;28.52;;;;;;;6.91;87.41;102900.53;10141838;28;20077;-67
2021/11/15 08:13:23;;;;;;;51.08;27.77;;;;;;;6.88;85.45;102895.56;10154458;28;20513;-67
2021/11/15 08:18:19;;;;;;;55.38;27.77;;;;;;;6.82;85.93;102907.38;10179009;28;20100;-67
2021/11/15 08:23:19;;;;;;;52.42;28.13;;;;;;;6.87;86.76;102909.41;10164442;28;20269;-68
2021/11/15 08:28:15;;;;;;;49.42;27.35;;;;;;;6.80;85.87;102909.56;10163738;28;20050;-67
2021/11/15 08:33:13;;;;;;;52.67;29.13;;;;;;;6.91;86.18;102911.41;10159263;28;20084;-68
2021/11/15 08:38:16;;;;;;;48.13;26.65;;;;;;;6.85;85.12;102923.25;10166209;28;20124;-68
2021/11/15 08:43:15;;;;;;;52.75;25.80;;;;;;;6.88;83.91;102924.66;10157476;28;20077;-68
2021/11/15 08:48:12;;;;;;;49.70;26.95;;;;;;;6.88;84.27;102925.47;10153327;28;20072;-67
2021/11/15 08:53:09;;;;;;;49.28;27.20;;;;;;;6.85;83.83;102925.97;10142916;28;20053;-68
2021/11/15 08:58:05;;;;;;;52.67;27.88;;;;;;;6.97;82.91;102925.13;10164427;28;20050;-67
2021/11/15 09:03:02;;;;;;;50.05;28.27;;;;;;;6.99;83.96;102923.00;10166489;28;20046;-68
2021/11/15 09:07:58;;;;;;;53.83;27.55;;;;;;;7.06;84.11;102907.38;10150116;28;20468;-68
2021/11/15 09:12:55;;;;;;;51.22;27.77;;;;;;;7.09;84.15;102915.03;10159385;28;20039;-68
2021/11/15 09:17:51;;;;;;;45.72;25.52;;;;;;;7.07;82.00;102915.28;10165751;28;20561;-67
2021/11/15 09:22:48;;;;;;;44.25;25.27;;;;;;;7.10;82.38;102908.53;10166863;28;20058;-69
2021/11/15 09:27:44;;;;;;;46.97;26.48;;;;;;;7.02;83.44;102901.56;10154049;28;20078;-68
2021/11/15 09:32:43;;;;;;;48.40;25.85;;;;;;;7.03;82.46;102913.28;10160033;28;20039;-68
2021/11/15 09:37:41;;;;;;;45.05;24.60;;;;;;;7.07;81.37;102919.88;10160965;28;20045;-67
2021/11/15 09:42:38;;;;;;;50.47;26.13;;;;;;;7.08;80.45;102927.81;10167593;28;20404;-67
2021/11/15 09:47:40;;;;;;;45.55;25.95;;;;;;;7.10;81.21;102930.28;10159517;28;20042;-68
2021/11/15 09:52:37;;;;;;;48.70;25.98;;;;;;;7.13;80.14;102921.66;10153611;28;20089;-67
2021/11/15 09:57:40;;;;;;;48.17;26.67;;;;;;;7.06;81.23;102915.53;10168133;28;20819;-67
2021/11/15 10:02:37;;;;;;;42.17;25.63;;;;;;;7.13;81.54;102918.94;10161629;28;20045;-67
2021/11/15 10:07:46;;;;;;;46.45;26.05;;;;;;;7.07;79.86;102918.00;10151222;28;20431;-68
2021/11/15 10:13:03;;;;;;;46.38;26.75;;;;;;;7.19;80.85;102912.50;10140947;28;20055;-68
2021/11/15 10:17:59;;;;;;;49.15;25.88;;;;;;;7.13;82.05;102913.50;10158357;28;20050;-68
2021/11/15 10:22:57;;;;;;;47.05;26.52;;;;;;;7.06;80.81;102907.38;10173965;28;20690;-68
2021/11/15 10:28:07;;;;;;;49.47;27.70;;;;;;;7.11;81.39;102910.19;10150769;28;20475;-67
2021/11/15 10:33:05;;;;;;;47.83;25.27;;;;;;;7.04;81.08;102899.44;10162941;28;20080;-68
2021/11/15 10:38:02;;;;;;;44.22;25.55;;;;;;;7.05;81.42;102892.91;10150351;28;20115;-68
2021/11/15 10:43:07;;;;;;;45.95;27.27;;;;;;;7.07;81.21;102895.41;10158311;28;20665;-67
2021/11/15 10:48:11;;;;;;;45.28;25.67;;;;;;;7.13;79.49;102891.72;10145637;28;20046;-67
2021/11/15 10:53:27;;;;;;;47.50;25.20;;;;;;;7.16;79.82;102891.25;10149087;28;20057;-68
2021/11/15 10:58:24;;;;;;;44.95;24.50;;;;;;;7.15;80.77;102892.31;10157651;28;20042;-67
2021/11/15 11:03:24;;;;;;;44.70;24.45;;;;;;;7.12;81.27;102900.94;10156006;28;21377;-67
2021/11/15 11:08:23;;;;;;;45.95;25.92;;;;;;;7.21;81.51;102894.06;10168011;28;20054;-68
2021/11/15 11:13:24;;;;;;;48.15;25.85;;;;;;;7.14;82.04;102886.03;10171891;28;20065;-67
2021/11/15 11:28:35;;;;;;;49.53;26.02;;;;;;;7.03;81.51;102861.59;10154726;28;20599;-67
2021/11/15 11:33:31;;;;;;;47.08;24.83;;;;;;;6.94;82.73;102867.44;10155149;28;20066;-68
2021/11/15 11:38:29;;;;;;;44.67;25.17;;;;;;;7.13;82.49;102859.09;10148512;28;20607;-68
2021/11/15 11:43:26;;;;;;;46.55;25.40;;;;;;;7.04;83.47;102857.81;10143658;28;20070;-68
2021/11/15 11:48:25;;;;;;;45.80;24.42;;;;;;;7.09;82.94;102855.19;10155358;28;20644;-68
2021/11/15 11:53:29;;;;;;;46.00;24.25;;;;;;;7.13;81.86;102859.09;10153916;28;20185;-68
2021/11/15 11:58:35;;;;;;;43.22;24.42;;;;;;;7.21;81.60;102861.41;10166648;28;20450;-67
2021/11/15 12:03:32;;;;;;;43.13;24.50;;;;;;;7.23;81.20;102851.13;10154796;28;20038;-67
2021/11/15 12:08:55;;;;;;;45.60;24.88;;;;;;;7.26;82.90;102842.44;10169311;28;20246;-67
2021/11/15 12:13:53;;;;;;;43.33;24.98;;;;;;;7.16;80.79;102831.38;10157918;28;20046;-66
2021/11/15 12:18:58;;;;;;;48.13;26.95;;;;;;;7.25;81.48;102823.66;10176745;28;20077;-67
2021/11/15 12:23:54;;;;;;;44.67;25.15;;;;;;;7.34;80.97;102814.88;10174661;28;20073;-67
2021/11/15 12:28:54;;;;;;;46.35;25.95;;;;;;;7.35;79.36;102813.78;10162256;28;20164;-67
2021/11/15 12:33:51;;;;;;;49.35;26.80;;;;;;;7.24;79.93;102816.56;10173883;28;20534;-67
2021/11/15 12:38:53;;;;;;;45.92;25.13;;;;;;;7.29;79.17;102820.22;10165938;28;20105;-67
2021/11/15 12:43:49;;;;;;;46.77;24.83;;;;;;;7.33;79.22;102821.38;10148342;28;20483;-67
2021/11/15 12:48:49;;;;;;;46.92;25.70;;;;;;;7.30;80.91;102819.13;10151295;28;20046;-67
2021/11/15 12:53:48;;;;;;;46.38;26.25;;;;;;;7.21;80.85;102828.75;10151070;28;20053;-67
2021/11/15 12:58:48;;;;;;;50.53;25.35;;;;;;;7.27;79.23;102814.19;10169025;28;20039;-65
2021/11/15 13:03:44;;;;;;;47.42;26.33;;;;;;;7.23;79.91;102809.47;10148433;28;20047;-67
2021/11/15 13:08:44;;;;;;;46.75;23.42;;;;;;;7.28;79.43;102807.66;10148440;28;20567;-66
2021/11/15 13:13:41;;;;;;;45.92;25.08;;;;;;;7.32;79.43;102797.94;10141827;28;20097;-67
2021/11/15 13:18:39;;;;;;;49.85;27.13;;;;;;;7.27;81.74;102800.59;10139792;28;20045;-67
2021/11/15 13:23:37;;;;;;;48.80;26.30;;;;;;;7.28;80.45;102788.63;10167122;28;20078;-67
2021/11/15 13:28:35;;;;;;;44.63;24.52;;;;;;;7.27;79.44;102780.72;10153439;28;20050;-67
2021/11/15 13:33:34;;;;;;;42.72;24.35;;;;;;;7.27;79.76;102778.81;10150491;28;20090;-67
2021/11/15 13:38:30;;;;;;;49.65;26.25;;;;;;;7.28;80.12;102777.72;10168377;28;20145;-67
2021/11/15 13:43:27;;;;;;;48.13;25.52;;;;;;;7.26;80.65;102771.72;10160798;28;20124;-67
2021/11/15 13:48:24;;;;;;;49.05;25.63;;;;;;;7.26;80.50;102771.72;10162001;28;20050;-68
2021/11/15 13:53:21;;;;;;;51.78;28.48;;;;;;;7.31;80.86;102770.97;10178082;28;20129;-68
2021/11/15 13:58:18;;;;;;;49.30;27.55;;;;;;;7.28;81.90;102777.72;10160823;28;20069;-67
2021/11/15 14:03:15;;;;;;;49.33;26.42;;;;;;;7.19;82.56;102768.31;10160453;28;20103;-67
2021/11/15 14:08:11;;;;;;;52.65;25.92;;;;;;;7.02;83.00;102770.19;10157719;28;20765;-68
2021/11/15 14:13:08;;;;;;;50.00;26.67;;;;;;;7.13;83.28;102766.59;10159817;28;20073;-68
2021/11/15 14:18:05;;;;;;;53.80;29.15;;;;;;;7.12;83.09;102764.94;10135194;28;20104;-67
2021/11/15 14:23:01;;;;;;;51.42;25.38;;;;;;;7.11;82.49;102757.84;10166626;28;20467;-67
2021/11/15 14:27:58;;;;;;;52.40;28.38;;;;;;;7.13;82.90;102761.16;10161580;28;20073;-67
2021/11/15 14:32:54;;;;;;;52.08;26.25;;;;;;;7.13;83.26;102766.59;10158070;28;20069;-67
2021/11/15 14:37:51;;;;;;;52.67;28.45;;;;;;;7.08;84.58;102770.03;10155845;28;20046;-67
2021/11/15 14:42:49;;;;;;;52.55;28.35;;;;;;;7.06;85.13;102771.38;10131996;28;20038;-67
2021/11/15 14:47:46;;;;;;;55.08;25.77;;;;;;;6.94;84.86;102769.50;10153414;28;20093;-68
2021/11/15 14:52:42;;;;;;;52.78;27.75;;;;;;;7.07;84.87;102775.72;10156572;28;20485;-68
2021/11/15 14:57:39;;;;;;;53.67;28.17;;;;;;;7.08;85.18;102774.66;10152698;28;20459;-68
2021/11/15 15:02:35;;;;;;;52.05;24.98;;;;;;;7.09;86.13;102792.63;10153643;28;20043;-68
2021/11/15 15:07:33;;;;;;;48.13;25.15;;;;;;;7.04;86.62;102787.91;10154283;28;20070;-67
2021/11/15 15:12:29;;;;;;;51.15;28.35;;;;;;;7.08;86.46;102782.81;10151592;28;20077;-67
2021/11/15 15:17:26;;;;;;;54.67;26.77;;;;;;;6.98;86.06;102783.44;10163250;28;20076;-67
2021/11/15 15:22:22;;;;;;;47.75;25.15;;;;;;;6.94;85.03;102780.41;10167763;28;20065;-68
2021/11/15 15:27:19;;;;;;;49.85;23.95;;;;;;;6.95;84.58;102773.88;10159716;28;20569;-68
2021/11/15 15:32:15;;;;;;;44.72;24.20;;;;;;;6.93;84.25;102767.84;10164515;28;20633;-67
2021/11/15 15:37:12;;;;;;;51.38;26.75;;;;;;;6.94;86.21;102764.06;10156840;28;20074;-68
2021/11/15 15:42:09;;;;;;;45.50;24.80;;;;;;;6.89;86.41;102769.44;10154677;28;20057;-67
2021/11/15 15:47:06;;;;;;;51.55;25.95;;;;;;;6.94;86.38;102764.06;10142950;28;20695;-68
2021/11/15 15:52:03;;;;;;;55.28;25.88;;;;;;;6.82;86.58;102766.00;10153908;28;20038;-67
2021/11/15 15:56:59;;;;;;;46.95;23.92;;;;;;;6.90;87.06;102767.53;10165182;28;20105;-67
2021/11/15 16:01:55;;;;;;;52.42;24.90;;;;;;;6.77;86.44;102768.63;10167320;28;20078;-67
2021/11/15 16:12:16;;;;;;;49.38;24.17;;;;;;;6.76;87.99;102771.59;10177322;28;20137;-68
2021/11/15 16:17:15;;;;;;;49.20;24.98;;;;;;;6.82;88.50;102766.00;10166188;28;20069;-67
2021/11/15 16:22:12;;;;;;;49.10;24.00;;;;;;;6.78;88.57;102767.56;10171048;28;20038;-66
2021/11/15 16:27:09;;;;;;;52.83;24.30;;;;;;;6.68;88.69;102753.75;10160750;28;20088;-67
2021/11/15 16:32:06;;;;;;;47.00;24.33;;;;;;;6.76;88.89;102756.09;10162259;28;20042;-67
2021/11/15 16:37:02;;;;;;;52.72;24.27;;;;;;;6.80;88.66;102756.44;10161493;28;20066;-67
2021/11/15 16:41:59;;;;;;;53.20;25.25;;;;;;;6.64;89.05;102753.44;10157637;28;20072;-67
2021/11/15 16:46:58;;;;;;;48.55;23.17;;;;;;;6.73;88.50;102740.28;10149692;28;20492;-68
2021/11/15 16:51:55;;;;;;;48.00;23.85;;;;;;;6.64;89.46;102741.75;10141883;28;20044;-67
2021/11/15 16:56:52;;;;;;;45.92;22.30;;;;;;;6.52;89.06;102737.16;10140304;28;20501;-67
2021/11/15 17:02:00;;;;;;;46.75;25.17;;;;;;;6.59;89.23;102745.19;10150396;28;20077;-68
2021/11/15 17:06:56;;;;;;;43.53;22.27;;;;;;;6.52;88.75;102739.88;10157136;28;20103;-67
2021/11/15 17:11:53;;;;;;;49.45;24.17;;;;;;;6.66;89.36;102756.75;10160320;28;20080;-67
2021/11/15 17:16:52;;;;;;;44.10;20.85;;;;;;;6.53;89.23;102757.81;10162872;28;20078;-67
2021/11/15 17:21:49;;;;;;;42.47;21.58;;;;;;;6.44;89.39;102761.16;10172688;28;20415;-67
2021/11/15 17:26:45;;;;;;;41.53;21.80;;;;;;;6.57;88.79;102751.91;10161126;28;20499;-68
2021/11/15 17:31:42;;;;;;;42.80;21.75;;;;;;;6.61;89.29;102753.06;10169216;28;20550;-67
2021/11/15 17:36:39;;;;;;;45.88;24.13;;;;;;;6.60;89.47;102756.88;10160732;28;20046;-68
2021/11/15 17:41:38;;;;;;;40.10;18.65;;;;;;;6.56;88.48;102758.41;10156081;28;20052;-67
2021/11/15 17:46:39;;;;;;;41.15;19.92;;;;;;;6.51;87.81;102765.41;10149797;28;20077;-67
2021/11/15 17:51:44;;;;;;;41.17;20.65;;;;;;;6.55;88.14;102770.38;10134556;28;20416;-67
2021/11/15 17:56:46;;;;;;;39.83;19.80;;;;;;;6.61;88.34;102763.94;10139289;28;20052;-66
2021/11/15 18:01:43;;;;;;;39.50;20.33;;;;;;;6.55;88.38;102743.19;10140969;28;20496;-68
2021/11/15 18:06:41;;;;;;;39.05;21.33;;;;;;;6.60;88.53;102746.00;10141390;28;20046;-68
2021/11/15 18:11:40;;;;;;;44.22;21.95;;;;;;;6.60;89.42;102735.13;10150493;28;20045;-68
2021/11/15 18:16:42;;;;;;;41.30;21.25;;;;;;;6.64;89.20;102733.59;10143710;28;20042;-67
2021/11/15 18:21:39;;;;;;;37.50;18.35;;;;;;;6.54;89.19;102731.47;10148792;28;20523;-69
2021/11/15 18:26:36;;;;;;;36.17;19.15;;;;;;;6.55;88.91;102737.75;10148199;28;20052;-67
2021/11/15 18:31:33;;;;;;;37.42;18.42;;;;;;;6.47;89.48;102742.47;10167621;28;20088;-67
2021/11/15 18:36:30;;;;;;;34.75;17.65;;;;;;;6.42;88.61;102755.97;10158435;28;20751;-67
2021/11/15 18:41:28;;;;;;;33.55;17.13;;;;;;;6.51;88.45;102754.53;10156143;28;20041;-67
2021/11/15 18:46:26;;;;;;;34.85;16.63;;;;;;;6.35;89.13;102758.00;10136348;28;20080;-67
2021/11/15 18:51:22;;;;;;;39.20;17.63;;;;;;;6.37;88.91;102755.84;10151285;28;20412;-67
2021/11/15 18:56:19;;;;;;;36.40;18.30;;;;;;;6.29;89.39;102745.38;10146545;28;20053;-68
2021/11/15 19:01:26;;;;;;;41.85;18.50;;;;;;;6.38;89.62;102738.47;10140335;28;20039;-67
2021/11/15 19:06:23;;;;;;;36.63;19.20;;;;;;;6.36;89.98;102724.34;10154938;28;20038;-67
2021/11/15 19:11:37;;;;;;;34.13;17.58;;;;;;;6.37;89.95;102725.97;10155182;28;20121;-67
2021/11/15 19:16:36;;;;;;;32.65;17.83;;;;;;;6.37;88.61;102728.69;10160279;28;20075;-67
2021/11/15 19:21:35;;;;;;;34.38;16.88;;;;;;;6.39;88.22;102740.16;10159013;28;20130;-67
2021/11/15 19:26:36;;;;;;;32.67;17.08;;;;;;;6.49;88.38;102740.34;10154180;28;20760;-67
2021/11/15 19:31:32;;;;;;;29.08;16.67;;;;;;;6.51;88.39;102740.94;10169562;28;20080;-68
2021/11/15 19:36:30;;;;;;;27.92;15.70;;;;;;;6.36;87.86;102746.06;10164061;28;20800;-68
2021/11/15 19:41:27;;;;;;;27.35;16.50;;;;;;;6.44;87.83;102753.00;10160616;28;20120;-68
2021/11/15 19:46:24;;;;;;;27.92;15.27;;;;;;;6.42;87.43;102755.97;10160632;28;20069;-67
2021/11/15 19:51:20;;;;;;;29.60;16.20;;;;;;;6.39;87.84;102745.59;10156278;28;20073;-68
2021/11/15 19:56:19;;;;;;;28.05;16.08;;;;;;;6.49;88.41;102740.34;10140150;28;20074;-68
2021/11/15 20:01:17;;;;;;;29.67;17.70;;;;;;;6.44;87.94;102737.53;10156765;28;20092;-68
2021/11/15 20:06:15;;;;;;;28.58;16.17;;;;;;;6.38;88.01;102749.34;10116326;28;1035067;-68
2021/11/15 20:11:12;;;;;;;30.15;17.48;;;;;;;6.42;87.82;102736.13;10159342;28;20057;-67
2021/11/15 20:16:12;;;;;;;29.55;15.63;;;;;;;6.39;88.47;102733.91;10161502;28;20133;-68
2021/11/15 20:21:11;;;;;;;30.35;16.10;;;;;;;6.39;88.07;102747.47;10157600;28;20546;-67
2021/11/15 20:26:09;;;;;;;27.38;15.80;;;;;;;6.19;87.46;102751.41;10153064;28;20076;-68
2021/11/15 20:31:06;;;;;;;27.17;16.92;;;;;;;6.37;88.00;102750.44;10166130;28;20072;-68
2021/11/15 20:36:06;;;;;;;24.50;15.27;;;;;;;6.41;87.58;102753.50;10153670;28;20104;-68
2021/11/15 20:41:03;;;;;;;29.58;15.38;;;;;;;6.41;87.46;102759.75;10162294;28;20491;-68
2021/11/15 20:45:59;;;;;;;26.77;16.10;;;;;;;6.21;86.98;102759.31;10145551;28;20500;-67
2021/11/15 20:50:56;;;;;;;24.75;13.75;;;;;;;6.33;87.33;102757.41;10147417;28;20067;-68
2021/11/15 20:55:54;;;;;;;24.67;14.48;;;;;;;6.33;86.55;102762.81;10149469;28;20559;-68
2021/11/15 21:00:55;;;;;;;25.75;13.60;;;;;;;6.28;86.72;102760.00;10160745;28;20046;-66
2021/11/15 21:05:51;;;;;;;24.45;14.25;;;;;;;6.35;87.37;102755.28;10161612;28;20054;-67
2021/11/15 21:10:48;;;;;;;25.23;14.52;;;;;;;6.38;87.55;102760.22;10151999;28;20107;-68
2021/11/15 21:15:45;;;;;;;24.95;15.27;;;;;;;6.38;87.94;102749.34;10157723;28;20100;-68
2021/11/15 21:20:44;;;;;;;25.35;14.93;;;;;;;6.37;87.91;102742.28;10137992;28;20137;-68
2021/11/15 21:25:40;;;;;;;21.75;13.65;;;;;;;6.27;87.00;102733.91;10148805;28;20051;-67
2021/11/15 21:30:41;;;;;;;24.35;13.82;;;;;;;6.18;86.90;102732.63;10177281;28;20503;-67
2021/11/15 21:35:37;;;;;;;23.05;13.98;;;;;;;6.18;86.13;102738.06;10154613;28;20062;-67
2021/11/15 21:40:35;;;;;;;25.13;15.38;;;;;;;6.14;86.59;102736.88;10160888;28;20051;-67
2021/11/15 21:45:31;;;;;;;22.00;12.80;;;;;;;6.20;86.10;102744.09;10155695;28;20070;-68
2021/11/15 21:50:29;;;;;;;22.40;14.25;;;;;;;6.16;86.02;102740.19;10153348;28;20043;-68
2021/11/15 21:55:26;;;;;;;25.45;14.43;;;;;;;6.14;85.80;102742.31;10142902;28;20567;-67
2021/11/15 22:00:28;;;;;;;23.55;13.55;;;;;;;6.18;86.25;102748.94;10156394;28;20081;-68
2021/11/15 22:05:25;;;;;;;22.67;12.02;;;;;;;6.09;86.52;102741.13;10150139;28;20398;-67
2021/11/15 22:10:22;;;;;;;23.45;13.70;;;;;;;6.20;85.59;102742.19;10149355;28;20148;-68
2021/11/15 22:15:19;;;;;;;23.58;14.38;;;;;;;6.23;86.74;102733.56;10153125;28;20105;-68
2021/11/15 22:20:17;;;;;;;23.90;14.48;;;;;;;6.30;86.31;102730.72;10162876;28;20441;-68
2021/11/15 22:25:14;;;;;;;21.88;14.23;;;;;;;6.24;85.22;102731.66;10158368;28;20046;-68
2021/11/15 22:30:12;;;;;;;22.90;14.35;;;;;;;6.28;86.17;102733.66;10158461;28;20050;-67
2021/11/15 22:35:10;;;;;;;23.27;14.52;;;;;;;6.26;86.83;102724.09;10158398;28;20205;-69
2021/11/15 22:40:10;;;;;;;22.10;13.70;;;;;;;6.20;85.92;102719.66;10160755;28;20514;-68
2021/11/15 22:45:07;;;;;;;27.70;15.35;;;;;;;6.27;86.55;102709.47;10157228;28;20080;-68
2021/11/15 22:50:08;;;;;;;25.17;14.82;;;;;;;6.22;87.23;102701.19;10153041;28;20054;-67